sensor_id;sensor_type;location;lat;lon;timestamp;pressure;altitude;pressure_sealevel;temperature
7830;BMP180;3960;51.86894000;5.39848000;2023-02-15T00:01:36;102985.94;;;3.28
7830;BMP180;3960;51.86894000;5.39848000;2023-02-15T00:04:03;102982.78;;;3.26
7830;BMP180;3960;51.86894000;5.39848000;2023-02-15T00:06:28;102992.78;;;3.34
7830;BMP180;3960;51.86894000;5.39848000;2023-02-15T00:08:54;102963.66;;;3.19
7830;BMP180;3960;51.86894000;5.39848000;2023-02-15T00:11:20;102975.09;;;3.33
7830;BMP180;3960;51.86894000;5.39848000;2023-02-15T00:16:34;102973.34;;;3.29
7830;BMP180;3960;51.86894000;5.39848000;2023-02-15T00:19:00;102980.66;;;3.37
7830;BMP180;3960;51.86894000;5.39848000;2023-02-15T00:21:29;102971.34;;;3.34
7830;BMP180;3960;51.86894000;5.39848000;2023-02-15T00:23:57;102975.28;;;3.37
7830;BMP180;3960;51.86894000;5.39848000;2023-02-15T00:26:22;102958.53;;;3.31
7830;BMP180;3960;51.86894000;5.39848000;2023-02-15T00:28:48;102965.47;;;3.32
7830;BMP180;3960;51.86894000;5.39848000;2023-02-15T00:31:13;102965.47;;;3.32
7830;BMP180;3960;51.86894000;5.39848000;2023-02-15T00:33:39;102972.13;;;3.35
7830;BMP180;3960;51.86894000;5.39848000;2023-02-15T00:36:06;102964.81;;;3.27
7830;BMP180;3960;51.86894000;5.39848000;2023-02-15T00:38:33;102967.38;;;3.32
7830;BMP180;3960;51.86894000;5.39848000;2023-02-15T00:41:00;102963.91;;;3.31
7830;BMP180;3960;51.86894000;5.39848000;2023-02-15T00:43:27;102951.13;;;3.28
7830;BMP180;3960;51.86894000;5.39848000;2023-02-15T00:45:53;102964.72;;;3.32
7830;BMP180;3960;51.86894000;5.39848000;2023-02-15T00:48:19;102955.09;;;3.31
7830;BMP180;3960;51.86894000;5.39848000;2023-02-15T00:50:55;102917.09;;;3.07
7830;BMP180;3960;51.86894000;5.39848000;2023-02-15T00:53:20;102954.59;;;3.29
7830;BMP180;3960;51.86894000;5.39848000;2023-02-15T00:55:46;102943.69;;;3.25
7830;BMP180;3960;51.86894000;5.39848000;2023-02-15T00:58:12;102937.84;;;3.23
7830;BMP180;3960;51.86894000;5.39848000;2023-02-15T01:00:38;102915.72;;;3.09
7830;BMP180;3960;51.86894000;5.39848000;2023-02-15T01:03:05;102946.06;;;3.27
7830;BMP180;3960;51.86894000;5.39848000;2023-02-15T01:05:31;102917.75;;;3.12
7830;BMP180;3960;51.86894000;5.39848000;2023-02-15T01:07:57;102942.41;;;3.23
7830;BMP180;3960;51.86894000;5.39848000;2023-02-15T01:10:23;102934.19;;;3.19
7830;BMP180;3960;51.86894000;5.39848000;2023-02-15T01:12:50;102909.19;;;3.02
7830;BMP180;3960;51.86894000;5.39848000;2023-02-15T01:15:15;102929.75;;;3.15
7830;BMP180;3960;51.86894000;5.39848000;2023-02-15T01:17:41;102920.88;;;3.06
7830;BMP180;3960;51.86894000;5.39848000;2023-02-15T01:20:07;102932.06;;;3.08
7830;BMP180;3960;51.86894000;5.39848000;2023-02-15T01:22:32;102912.28;;;2.95
7830;BMP180;3960;51.86894000;5.39848000;2023-02-15T01:24:57;102929.69;;;3.06
7830;BMP180;3960;51.86894000;5.39848000;2023-02-15T01:27:23;102898.22;;;2.90
7830;BMP180;3960;51.86894000;5.39848000;2023-02-15T01:29:48;102909.63;;;2.95
7830;BMP180;3960;51.86894000;5.39848000;2023-02-15T01:32:13;102927.00;;;3.06
7830;BMP180;3960;51.86894000;5.39848000;2023-02-15T01:34:39;102910.41;;;2.96
7830;BMP180;3960;51.86894000;5.39848000;2023-02-15T01:37:04;102925.06;;;2.98
7830;BMP180;3960;51.86894000;5.39848000;2023-02-15T01:39:29;102921.53;;;2.89
7830;BMP180;3960;51.86894000;5.39848000;2023-02-15T01:41:55;102921.53;;;2.89
7830;BMP180;3960;51.86894000;5.39848000;2023-02-15T01:44:50;102920.53;;;2.86
7830;BMP180;3960;51.86894000;5.39848000;2023-02-15T01:49:56;102905.94;;;2.70
7830;BMP180;3960;51.86894000;5.39848000;2023-02-15T01:52:23;102898.81;;;2.65
7830;BMP180;3960;51.86894000;5.39848000;2023-02-15T01:54:49;102900.88;;;2.68
7830;BMP180;3960;51.86894000;5.39848000;2023-02-15T01:57:18;102909.38;;;2.70
7830;BMP180;3960;51.86894000;5.39848000;2023-02-15T01:59:47;102893.06;;;2.58
7830;BMP180;3960;51.86894000;5.39848000;2023-02-15T02:02:16;102914.56;;;2.67
7830;BMP180;3960;51.86894000;5.39848000;2023-02-15T02:04:48;102886.91;;;2.58
7830;BMP180;3960;51.86894000;5.39848000;2023-02-15T02:07:15;102886.44;;;2.56
7830;BMP180;3960;51.86894000;5.39848000;2023-02-15T02:09:42;102889.31;;;2.59
7830;BMP180;3960;51.86894000;5.39848000;2023-02-15T02:12:08;102892.00;;;2.59
7830;BMP180;3960;51.86894000;5.39848000;2023-02-15T02:14:35;102853.59;;;2.42
7830;BMP180;3960;51.86894000;5.39848000;2023-02-15T02:17:04;102882.06;;;2.60
7830;BMP180;3960;51.86894000;5.39848000;2023-02-15T02:25:03;102880.59;;;2.54
7830;BMP180;3960;51.86894000;5.39848000;2023-02-15T02:34:01;102855.19;;;2.43
7830;BMP180;3960;51.86894000;5.39848000;2023-02-15T02:42:18;102876.66;;;2.51
7830;BMP180;3960;51.86894000;5.39848000;2023-02-15T02:45:13;102859.91;;;2.46
7830;BMP180;3960;51.86894000;5.39848000;2023-02-15T02:47:44;102859.44;;;2.44
7830;BMP180;3960;51.86894000;5.39848000;2023-02-15T02:50:22;102861.81;;;2.45
7830;BMP180;3960;51.86894000;5.39848000;2023-02-15T02:52:50;102846.78;;;2.36
7830;BMP180;3960;51.86894000;5.39848000;2023-02-15T02:55:27;102851.03;;;2.37
7830;BMP180;3960;51.86894000;5.39848000;2023-02-15T02:57:59;102848.34;;;2.37
7830;BMP180;3960;51.86894000;5.39848000;2023-02-15T03:00:29;102817.28;;;2.27
7830;BMP180;3960;51.86894000;5.39848000;2023-02-15T03:03:08;102835.00;;;2.37
7830;BMP180;3960;51.86894000;5.39848000;2023-02-15T03:05:38;102826.34;;;2.40
7830;BMP180;3960;51.86894000;5.39848000;2023-02-15T03:08:04;102830.59;;;2.41
7830;BMP180;3960;51.86894000;5.39848000;2023-02-15T03:10:35;102824.66;;;2.44
7830;BMP180;3960;51.86894000;5.39848000;2023-02-15T03:13:02;102827.22;;;2.49
7830;BMP180;3960;51.86894000;5.39848000;2023-02-15T03:15:37;102825.63;;;2.48
7830;BMP180;3960;51.86894000;5.39848000;2023-02-15T03:18:25;102799.41;;;2.36
7830;BMP180;3960;51.86894000;5.39848000;2023-02-15T03:20:53;102827.09;;;2.54
7830;BMP180;3960;51.86894000;5.39848000;2023-02-15T03:23:22;102826.00;;;2.55
7830;BMP180;3960;51.86894000;5.39848000;2023-02-15T03:25:56;102801.81;;;2.38
7830;BMP180;3960;51.86894000;5.39848000;2023-02-15T03:28:29;102817.28;;;2.49
7830;BMP180;3960;51.86894000;5.39848000;2023-02-15T03:30:57;102819.97;;;2.49
7830;BMP180;3960;51.86894000;5.39848000;2023-02-15T03:33:26;102825.50;;;2.53
7830;BMP180;3960;51.86894000;5.39848000;2023-02-15T03:38:43;102796.63;;;2.41
7830;BMP180;3960;51.86894000;5.39848000;2023-02-15T03:41:10;102822.66;;;2.49
7830;BMP180;3960;51.86894000;5.39848000;2023-02-15T03:43:53;102807.03;;;2.43
7830;BMP180;3960;51.86894000;5.39848000;2023-02-15T03:46:28;102813.66;;;2.45
7830;BMP180;3960;51.86894000;5.39848000;2023-02-15T03:48:58;102777.47;;;2.26
7830;BMP180;3960;51.86894000;5.39848000;2023-02-15T03:51:29;102809.84;;;2.38
7830;BMP180;3960;51.86894000;5.39848000;2023-02-15T03:54:03;102813.28;;;2.38
7830;BMP180;3960;51.86894000;5.39848000;2023-02-15T03:56:29;102787.38;;;2.25
7830;BMP180;3960;51.86894000;5.39848000;2023-02-15T03:58:55;102770.38;;;2.08
7830;BMP180;3960;51.86894000;5.39848000;2023-02-15T04:04:37;102801.94;;;2.19
7830;BMP180;3960;51.86894000;5.39848000;2023-02-15T04:07:04;102803.53;;;2.20
7830;BMP180;3960;51.86894000;5.39848000;2023-02-15T04:09:30;102776.63;;;2.04
7830;BMP180;3960;51.86894000;5.39848000;2023-02-15T04:12:14;102795.72;;;2.11
7830;BMP180;3960;51.86894000;5.39848000;2023-02-15T04:14:39;102794.31;;;2.13
7830;BMP180;3960;51.86894000;5.39848000;2023-02-15T04:17:23;102798.41;;;2.11
7830;BMP180;3960;51.86894000;5.39848000;2023-02-15T04:19:48;102784.25;;;1.97
7830;BMP180;3960;51.86894000;5.39848000;2023-02-15T04:22:32;102802.28;;;2.05
7830;BMP180;3960;51.86894000;5.39848000;2023-02-15T04:25:16;102795.66;;;2.02
7830;BMP180;3960;51.86894000;5.39848000;2023-02-15T04:27:53;102796.53;;;1.98
7830;BMP180;3960;51.86894000;5.39848000;2023-02-15T04:30:21;102784.19;;;1.88
7830;BMP180;3960;51.86894000;5.39848000;2023-02-15T04:32:46;102796.16;;;1.91
7830;BMP180;3960;51.86894000;5.39848000;2023-02-15T04:35:13;102791.50;;;1.83
7830;BMP180;3960;51.86894000;5.39848000;2023-02-15T04:37:39;102798.16;;;1.85
7830;BMP180;3960;51.86894000;5.39848000;2023-02-15T04:40:06;102798.44;;;1.84
7830;BMP180;3960;51.86894000;5.39848000;2023-02-15T04:42:32;102787.28;;;1.82
7830;BMP180;3960;51.86894000;5.39848000;2023-02-15T04:44:58;102782.13;;;1.72
7830;BMP180;3960;51.86894000;5.39848000;2023-02-15T04:47:23;102785.00;;;1.75
7830;BMP180;3960;51.86894000;5.39848000;2023-02-15T04:49:48;102751.97;;;1.58
7830;BMP180;3960;51.86894000;5.39848000;2023-02-15T04:52:14;102785.19;;;1.79
7830;BMP180;3960;51.86894000;5.39848000;2023-02-15T04:54:39;102772.72;;;1.74
7830;BMP180;3960;51.86894000;5.39848000;2023-02-15T04:57:05;102764.13;;;1.64
7830;BMP180;3960;51.86894000;5.39848000;2023-02-15T04:59:31;102777.59;;;1.72
7830;BMP180;3960;51.86894000;5.39848000;2023-02-15T05:01:56;102766.50;;;1.65
7830;BMP180;3960;51.86894000;5.39848000;2023-02-15T05:04:22;102759.38;;;1.61
7830;BMP180;3960;51.86894000;5.39848000;2023-02-15T05:06:47;102771.03;;;1.65
7830;BMP180;3960;51.86894000;5.39848000;2023-02-15T05:09:14;102756.00;;;1.55
7830;BMP180;3960;51.86894000;5.39848000;2023-02-15T05:11:40;102769.97;;;1.66
7830;BMP180;3960;51.86894000;5.39848000;2023-02-15T05:14:05;102746.22;;;1.51
7830;BMP180;3960;51.86894000;5.39848000;2023-02-15T05:16:30;102746.84;;;1.48
7830;BMP180;3960;51.86894000;5.39848000;2023-02-15T05:18:56;102759.97;;;1.58
7830;BMP180;3960;51.86894000;5.39848000;2023-02-15T05:21:21;102761.84;;;1.57
7830;BMP180;3960;51.86894000;5.39848000;2023-02-15T05:23:46;102745.44;;;1.50
7830;BMP180;3960;51.86894000;5.39848000;2023-02-15T05:26:15;102759.38;;;1.61
7830;BMP180;3960;51.86894000;5.39848000;2023-02-15T05:29:01;102730.91;;;1.43
7830;BMP180;3960;51.86894000;5.39848000;2023-02-15T05:31:27;102745.25;;;1.47
7830;BMP180;3960;51.86894000;5.39848000;2023-02-15T05:33:52;102748.41;;;1.49
7830;BMP180;3960;51.86894000;5.39848000;2023-02-15T05:36:17;102749.50;;;1.48
7830;BMP180;3960;51.86894000;5.39848000;2023-02-15T05:38:43;102757.50;;;1.48
7830;BMP180;3960;51.86894000;5.39848000;2023-02-15T05:41:09;102773.22;;;1.49
7830;BMP180;3960;51.86894000;5.39848000;2023-02-15T05:43:35;102773.03;;;1.46
7830;BMP180;3960;51.86894000;5.39848000;2023-02-15T05:46:01;102779.19;;;1.46
7830;BMP180;3960;51.86894000;5.39848000;2023-02-15T05:48:27;102774.72;;;1.42
7830;BMP180;3960;51.86894000;5.39848000;2023-02-15T05:51:07;102762.75;;;1.40
7830;BMP180;3960;51.86894000;5.39848000;2023-02-15T05:53:35;102772.53;;;1.44
7830;BMP180;3960;51.86894000;5.39848000;2023-02-15T05:56:01;102771.03;;;1.38
7830;BMP180;3960;51.86894000;5.39848000;2023-02-15T05:58:32;102767.50;;;1.42
7830;BMP180;3960;51.86894000;5.39848000;2023-02-15T06:00:58;102773.72;;;1.38
7830;BMP180;3960;51.86894000;5.39848000;2023-02-15T06:03:24;102750.88;;;1.32
7830;BMP180;3960;51.86894000;5.39848000;2023-02-15T06:05:51;102764.13;;;1.37
7830;BMP180;3960;51.86894000;5.39848000;2023-02-15T06:08:16;102771.66;;;1.35
7830;BMP180;3960;51.86894000;5.39848000;2023-02-15T06:10:41;102730.97;;;1.11
7830;BMP180;3960;51.86894000;5.39848000;2023-02-15T06:13:07;102742.38;;;1.17
7830;BMP180;3960;51.86894000;5.39848000;2023-02-15T06:15:32;102763.44;;;1.32
7830;BMP180;3960;51.86894000;5.39848000;2023-02-15T06:17:58;102747.13;;;1.20
7830;BMP180;3960;51.86894000;5.39848000;2023-02-15T06:20:23;102744.06;;;1.13
7830;BMP180;3960;51.86894000;5.39848000;2023-02-15T06:22:49;102759.56;;;1.24
7830;BMP180;3960;51.86894000;5.39848000;2023-02-15T06:25:14;102758.06;;;1.18
7830;BMP180;3960;51.86894000;5.39848000;2023-02-15T06:27:42;102765.50;;;1.21
7830;BMP180;3960;51.86894000;5.39848000;2023-02-15T06:30:09;102752.25;;;1.16
7830;BMP180;3960;51.86894000;5.39848000;2023-02-15T06:32:35;102739.91;;;1.07
7830;BMP180;3960;51.86894000;5.39848000;2023-02-15T06:35:01;102741.56;;;1.03
7830;BMP180;3960;51.86894000;5.39848000;2023-02-15T06:37:26;102727.25;;;0.99
7830;BMP180;3960;51.86894000;5.39848000;2023-02-15T06:39:51;102758.19;;;1.13
7830;BMP180;3960;51.86894000;5.39848000;2023-02-15T06:42:17;102732.69;;;1.07
7830;BMP180;3960;51.86894000;5.39848000;2023-02-15T06:44:43;102750.38;;;1.17
7830;BMP180;3960;51.86894000;5.39848000;2023-02-15T06:47:09;102729.50;;;1.05
7830;BMP180;3960;51.86894000;5.39848000;2023-02-15T06:49:34;102751.19;;;1.17
7830;BMP180;3960;51.86894000;5.39848000;2023-02-15T06:51:59;102732.97;;;1.06
7830;BMP180;3960;51.86894000;5.39848000;2023-02-15T06:54:25;102754.03;;;1.21
7830;BMP180;3960;51.86894000;5.39848000;2023-02-15T06:56:50;102742.97;;;1.14
7830;BMP180;3960;51.86894000;5.39848000;2023-02-15T06:59:15;102758.78;;;1.24
7830;BMP180;3960;51.86894000;5.39848000;2023-02-15T07:01:40;102726.56;;;1.07
7830;BMP180;3960;51.86894000;5.39848000;2023-02-15T07:04:06;102748.88;;;1.24
7830;BMP180;3960;51.86894000;5.39848000;2023-02-15T07:06:34;102756.31;;;1.27
7830;BMP180;3960;51.86894000;5.39848000;2023-02-15T07:09:00;102749.38;;;1.26
7830;BMP180;3960;51.86894000;5.39848000;2023-02-15T07:11:26;102753.84;;;1.31
7830;BMP180;3960;51.86894000;5.39848000;2023-02-15T07:14:10;102746.94;;;1.30
7830;BMP180;3960;51.86894000;5.39848000;2023-02-15T07:16:35;102753.53;;;1.32
7830;BMP180;3960;51.86894000;5.39848000;2023-02-15T07:19:00;102754.81;;;1.35
7830;BMP180;3960;51.86894000;5.39848000;2023-02-15T07:21:26;102717.56;;;1.16
7830;BMP180;3960;51.86894000;5.39848000;2023-02-15T07:23:52;102736.44;;;1.33
7830;BMP180;3960;51.86894000;5.39848000;2023-02-15T07:26:17;102749.69;;;1.38
7830;BMP180;3960;51.86894000;5.39848000;2023-02-15T07:28:43;102700.47;;;1.17
7830;BMP180;3960;51.86894000;5.39848000;2023-02-15T07:31:08;102724.38;;;1.36
7830;BMP180;3960;51.86894000;5.39848000;2023-02-15T07:33:34;102733.78;;;1.46
7830;BMP180;3960;51.86894000;5.39848000;2023-02-15T07:36:02;102727.53;;;1.51
7830;BMP180;3960;51.86894000;5.39848000;2023-02-15T07:38:34;102736.53;;;1.55
7830;BMP180;3960;51.86894000;5.39848000;2023-02-15T07:41:01;102726.84;;;1.59
7830;BMP180;3960;51.86894000;5.39848000;2023-02-15T07:43:27;102731.28;;;1.63
7830;BMP180;3960;51.86894000;5.39848000;2023-02-15T07:45:53;102715.25;;;1.63
7830;BMP180;3960;51.86894000;5.39848000;2023-02-15T07:48:18;102720.19;;;1.70
7830;BMP180;3960;51.86894000;5.39848000;2023-02-15T07:50:43;102729.97;;;1.74
7830;BMP180;3960;51.86894000;5.39848000;2023-02-15T07:53:09;102719.59;;;1.73
7830;BMP180;3960;51.86894000;5.39848000;2023-02-15T07:55:34;102735.13;;;1.84
7830;BMP180;3960;51.86894000;5.39848000;2023-02-15T07:58:00;102720.47;;;1.82
7830;BMP180;3960;51.86894000;5.39848000;2023-02-15T08:00:25;102718.28;;;1.84
7830;BMP180;3960;51.86894000;5.39848000;2023-02-15T08:02:52;102720.75;;;1.94
7830;BMP180;3960;51.86894000;5.39848000;2023-02-15T08:05:49;102721.41;;;1.99
7830;BMP180;3960;51.86894000;5.39848000;2023-02-15T08:08:14;102714.88;;;2.05
7830;BMP180;3960;51.86894000;5.39848000;2023-02-15T08:13:43;102711.06;;;2.19
7830;BMP180;3960;51.86894000;5.39848000;2023-02-15T08:16:40;102702.19;;;2.32
7830;BMP180;3960;51.86894000;5.39848000;2023-02-15T08:19:09;102703.88;;;2.81
7830;BMP180;3960;51.86894000;5.39848000;2023-02-15T08:21:41;102697.09;;;3.13
7830;BMP180;3960;51.86894000;5.39848000;2023-02-15T08:24:07;102708.22;;;3.37
7830;BMP180;3960;51.86894000;5.39848000;2023-02-15T08:26:34;102707.63;;;3.57
7830;BMP180;3960;51.86894000;5.39848000;2023-02-15T08:29:01;102697.88;;;3.69
7830;BMP180;3960;51.86894000;5.39848000;2023-02-15T08:31:27;102703.41;;;3.98
7830;BMP180;3960;51.86894000;5.39848000;2023-02-15T08:33:53;102703.56;;;4.35
7830;BMP180;3960;51.86894000;5.39848000;2023-02-15T08:36:22;102707.47;;;4.63
7830;BMP180;3960;51.86894000;5.39848000;2023-02-15T08:38:48;102686.00;;;4.63
7830;BMP180;3960;51.86894000;5.39848000;2023-02-15T08:41:22;102687.75;;;4.97
7830;BMP180;3960;51.86894000;5.39848000;2023-02-15T08:43:50;102696.63;;;5.34
7830;BMP180;3960;51.86894000;5.39848000;2023-02-15T08:46:16;102689.19;;;5.60
7830;BMP180;3960;51.86894000;5.39848000;2023-02-15T08:48:42;102694.53;;;5.89
7830;BMP180;3960;51.86894000;5.39848000;2023-02-15T08:51:10;102692.63;;;6.10
7830;BMP180;3960;51.86894000;5.39848000;2023-02-15T08:53:38;102684.69;;;6.13
7830;BMP180;3960;51.86894000;5.39848000;2023-02-15T08:56:03;102694.78;;;6.16
7830;BMP180;3960;51.86894000;5.39848000;2023-02-15T08:58:29;102696.63;;;6.24
7830;BMP180;3960;51.86894000;5.39848000;2023-02-15T09:00:56;102681.41;;;6.08
7830;BMP180;3960;51.86894000;5.39848000;2023-02-15T09:03:22;102686.78;;;6.08
7830;BMP180;3960;51.86894000;5.39848000;2023-02-15T09:05:47;102691.53;;;6.11
7830;BMP180;3960;51.86894000;5.39848000;2023-02-15T09:08:12;102687.38;;;6.13
7830;BMP180;3960;51.86894000;5.39848000;2023-02-15T09:10:38;102672.09;;;6.05
7830;BMP180;3960;51.86894000;5.39848000;2023-02-15T09:13:03;102687.47;;;6.05
7830;BMP180;3960;51.86894000;5.39848000;2023-02-15T09:15:28;102680.75;;;6.11
7830;BMP180;3960;51.86894000;5.39848000;2023-02-15T09:17:53;102685.19;;;6.27
7830;BMP180;3960;51.86894000;5.39848000;2023-02-15T09:20:19;102670.31;;;6.42
7830;BMP180;3960;51.86894000;5.39848000;2023-02-15T09:22:44;102682.44;;;6.80
7830;BMP180;3960;51.86894000;5.39848000;2023-02-15T09:25:09;102685.81;;;7.01
7830;BMP180;3960;51.86894000;5.39848000;2023-02-15T09:27:35;102652.22;;;6.86
7830;BMP180;3960;51.86894000;5.39848000;2023-02-15T09:30:02;102682.78;;;7.02
7830;BMP180;3960;51.86894000;5.39848000;2023-02-15T09:32:27;102677.94;;;7.08
7830;BMP180;3960;51.86894000;5.39848000;2023-02-15T09:34:52;102676.41;;;7.19
7830;BMP180;3960;51.86894000;5.39848000;2023-02-15T09:37:17;102669.06;;;7.31
7830;BMP180;3960;51.86894000;5.39848000;2023-02-15T09:39:43;102665.72;;;7.10
7830;BMP180;3960;51.86894000;5.39848000;2023-02-15T09:47:57;102659.97;;;7.35
7830;BMP180;3960;51.86894000;5.39848000;2023-02-15T09:56:02;102686.09;;;8.22
7830;BMP180;3960;51.86894000;5.39848000;2023-02-15T10:26:21;102683.75;;;8.20
7830;BMP180;3960;51.86894000;5.39848000;2023-02-15T10:28:50;102672.84;;;8.17
7830;BMP180;3960;51.86894000;5.39848000;2023-02-15T10:31:27;102671.38;;;8.19
7830;BMP180;3960;51.86894000;5.39848000;2023-02-15T10:37:18;102679.50;;;8.35
7830;BMP180;3960;51.86894000;5.39848000;2023-02-15T10:42:55;102660.91;;;8.45
7830;BMP180;3960;51.86894000;5.39848000;2023-02-15T10:49:00;102678.53;;;8.70
7830;BMP180;3960;51.86894000;5.39848000;2023-02-15T10:51:38;102677.31;;;8.83
7830;BMP180;3960;51.86894000;5.39848000;2023-02-15T10:54:11;102685.69;;;8.93
7830;BMP180;3960;51.86894000;5.39848000;2023-02-15T10:56:49;102682.28;;;8.96
7830;BMP180;3960;51.86894000;5.39848000;2023-02-15T10:59:33;102682.03;;;9.01
7830;BMP180;3960;51.86894000;5.39848000;2023-02-15T11:04:48;102663.69;;;9.26
7830;BMP180;3960;51.86894000;5.39848000;2023-02-15T11:07:22;102671.94;;;9.33
7830;BMP180;3960;51.86894000;5.39848000;2023-02-15T11:09:51;102657.72;;;9.36
7830;BMP180;3960;51.86894000;5.39848000;2023-02-15T11:12:24;102663.47;;;9.49
7830;BMP180;3960;51.86894000;5.39848000;2023-02-15T11:14:55;102664.03;;;9.58
7830;BMP180;3960;51.86894000;5.39848000;2023-02-15T11:17:26;102659.28;;;9.71
7830;BMP180;3960;51.86894000;5.39848000;2023-02-15T11:19:58;102651.69;;;9.76
7830;BMP180;3960;51.86894000;5.39848000;2023-02-15T11:22:29;102646.50;;;9.87
7830;BMP180;3960;51.86894000;5.39848000;2023-02-15T11:24:57;102633.59;;;9.80
7830;BMP180;3960;51.86894000;5.39848000;2023-02-15T11:27:31;102637.72;;;9.93
7830;BMP180;3960;51.86894000;5.39848000;2023-02-15T11:30:01;102634.13;;;10.05
7830;BMP180;3960;51.86894000;5.39848000;2023-02-15T11:32:37;102621.69;;;10.22
7830;BMP180;3960;51.86894000;5.39848000;2023-02-15T11:35:04;102626.88;;;10.53
7830;BMP180;3960;51.86894000;5.39848000;2023-02-15T11:42:47;102612.78;;;10.89
7830;BMP180;3960;51.86894000;5.39848000;2023-02-15T11:45:30;102623.00;;;10.99
7830;BMP180;3960;51.86894000;5.39848000;2023-02-15T11:47:57;102604.72;;;10.92
7830;BMP180;3960;51.86894000;5.39848000;2023-02-15T11:50:25;102611.28;;;11.17
7830;BMP180;3960;51.86894000;5.39848000;2023-02-15T11:53:07;102604.06;;;11.28
7830;BMP180;3960;51.86894000;5.39848000;2023-02-15T11:55:35;102587.50;;;11.33
7830;BMP180;3960;51.86894000;5.39848000;2023-02-15T11:58:39;102592.50;;;11.57
7830;BMP180;3960;51.86894000;5.39848000;2023-02-15T12:01:20;102585.69;;;11.70
7830;BMP180;3960;51.86894000;5.39848000;2023-02-15T12:08:13;102585.47;;;11.85
7830;BMP180;3960;51.86894000;5.39848000;2023-02-15T12:10:28;102566.84;;;11.84
7830;BMP180;3960;51.86894000;5.39848000;2023-02-15T12:13:19;102576.81;;;12.09
7830;BMP180;3960;51.86894000;5.39848000;2023-02-15T12:15:48;102572.16;;;12.10
7830;BMP180;3960;51.86894000;5.39848000;2023-02-15T12:20:58;102560.53;;;12.56
7830;BMP180;3960;51.86894000;5.39848000;2023-02-15T12:23:27;102568.06;;;12.73
7830;BMP180;3960;51.86894000;5.39848000;2023-02-15T12:25:54;102559.19;;;12.83
7830;BMP180;3960;51.86894000;5.39848000;2023-02-15T12:28:48;102573.25;;;12.88
7830;BMP180;3960;51.86894000;5.39848000;2023-02-15T12:31:26;102566.34;;;12.98
7830;BMP180;3960;51.86894000;5.39848000;2023-02-15T12:33:54;102563.69;;;13.12
7830;BMP180;3960;51.86894000;5.39848000;2023-02-15T12:36:22;102547.78;;;13.10
7830;BMP180;3960;51.86894000;5.39848000;2023-02-15T12:41:36;102554.72;;;13.01
7830;BMP180;3960;51.86894000;5.39848000;2023-02-15T12:44:34;102558.28;;;13.15
7830;BMP180;3960;51.86894000;5.39848000;2023-02-15T12:49:41;102545.56;;;13.36
7830;BMP180;3960;51.86894000;5.39848000;2023-02-15T12:54:46;102542.78;;;13.22
7830;BMP180;3960;51.86894000;5.39848000;2023-02-15T12:57:24;102538.81;;;13.13
7830;BMP180;3960;51.86894000;5.39848000;2023-02-15T12:59:58;102532.53;;;12.99
7830;BMP180;3960;51.86894000;5.39848000;2023-02-15T13:02:47;102535.25;;;12.99
7830;BMP180;3960;51.86894000;5.39848000;2023-02-15T13:08:02;102521.09;;;12.79
7830;BMP180;3960;51.86894000;5.39848000;2023-02-15T13:10:33;102523.84;;;12.83
7830;BMP180;3960;51.86894000;5.39848000;2023-02-15T13:13:00;102524.66;;;12.83
7830;BMP180;3960;51.86894000;5.39848000;2023-02-15T13:15:41;102528.50;;;12.82
7830;BMP180;3960;51.86894000;5.39848000;2023-02-15T13:18:13;102501.66;;;12.74
7830;BMP180;3960;51.86894000;5.39848000;2023-02-15T13:20:40;102490.03;;;12.77
7830;BMP180;3960;51.86894000;5.39848000;2023-02-15T13:23:18;102446.41;;;12.59
7830;BMP180;3960;51.86894000;5.39848000;2023-02-15T13:25:46;102493.31;;;13.00
7830;BMP180;3960;51.86894000;5.39848000;2023-02-15T13:28:18;102436.72;;;12.65
7830;BMP180;3960;51.86894000;5.39848000;2023-02-15T13:30:48;102506.59;;;13.15
7830;BMP180;3960;51.86894000;5.39848000;2023-02-15T13:33:21;102500.78;;;13.23
7830;BMP180;3960;51.86894000;5.39848000;2023-02-15T13:41:04;102499.22;;;13.19
7830;BMP180;3960;51.86894000;5.39848000;2023-02-15T13:43:40;102503.06;;;13.11
7830;BMP180;3960;51.86894000;5.39848000;2023-02-15T14:05:29;102501.44;;;12.96
7830;BMP180;3960;51.86894000;5.39848000;2023-02-15T14:08:01;102496.34;;;12.95
7830;BMP180;3960;51.86894000;5.39848000;2023-02-15T14:10:53;102498.31;;;12.94
7830;BMP180;3960;51.86894000;5.39848000;2023-02-15T14:16:20;102489.78;;;12.99
7830;BMP180;3960;51.86894000;5.39848000;2023-02-15T14:18:58;102473.06;;;12.90
7830;BMP180;3960;51.86894000;5.39848000;2023-02-15T14:29:48;102476.25;;;13.10
7830;BMP180;3960;51.86894000;5.39848000;2023-02-15T14:32:20;102477.00;;;13.03
7830;BMP180;3960;51.86894000;5.39848000;2023-02-15T14:34:52;102478.91;;;12.99
7830;BMP180;3960;51.86894000;5.39848000;2023-02-15T14:37:27;102462.47;;;12.85
7830;BMP180;3960;51.86894000;5.39848000;2023-02-15T14:40:15;102478.13;;;12.95
7830;BMP180;3960;51.86894000;5.39848000;2023-02-15T14:45:55;102470.59;;;12.78
7830;BMP180;3960;51.86894000;5.39848000;2023-02-15T14:48:45;102481.13;;;12.83
7830;BMP180;3960;51.86894000;5.39848000;2023-02-15T14:54:08;102475.22;;;12.71
7830;BMP180;3960;51.86894000;5.39848000;2023-02-15T14:56:34;102465.09;;;12.64
7830;BMP180;3960;51.86894000;5.39848000;2023-02-15T14:59:21;102480.63;;;12.64
7830;BMP180;3960;51.86894000;5.39848000;2023-02-15T15:02:12;102467.00;;;12.60
7830;BMP180;3960;51.86894000;5.39848000;2023-02-15T15:07:37;102447.81;;;12.36
7830;BMP180;3960;51.86894000;5.39848000;2023-02-15T15:10:32;102477.03;;;12.49
7830;BMP180;3960;51.86894000;5.39848000;2023-02-15T15:12:56;102459.06;;;12.35
7830;BMP180;3960;51.86894000;5.39848000;2023-02-15T15:23:56;102467.59;;;12.33
7830;BMP180;3960;51.86894000;5.39848000;2023-02-15T15:26:20;102475.31;;;12.31
7830;BMP180;3960;51.86894000;5.39848000;2023-02-15T15:31:18;102464.75;;;12.19
7830;BMP180;3960;51.86894000;5.39848000;2023-02-15T15:34:15;102438.19;;;11.95